createdAt,value
2018-11-03T00:01:39.165Z,3.23
2018-11-03T00:04:12.776Z,2.60
2018-11-03T00:06:46.556Z,3.30
2018-11-03T00:09:20.451Z,2.97
2018-11-03T00:11:53.691Z,2.70
2018-11-03T00:14:26.549Z,2.77
2018-11-03T00:16:59.676Z,3.07
2018-11-03T00:19:32.741Z,3.17
2018-11-03T00:22:05.902Z,3.67
2018-11-03T00:24:39.721Z,2.67
2018-11-03T00:27:12.657Z,3.10
2018-11-03T00:29:45.664Z,2.77
2018-11-03T00:32:18.404Z,2.57
2018-11-03T00:34:51.556Z,1.97
2018-11-03T00:37:24.623Z,2.60
2018-11-03T00:39:58.555Z,2.73
2018-11-03T00:42:31.697Z,1.87
2018-11-03T00:45:04.798Z,3.40
2018-11-03T00:47:37.948Z,2.60
2018-11-03T00:50:12.517Z,2.70
2018-11-03T00:52:46.120Z,2.67
2018-11-03T00:55:19.290Z,2.30
2018-11-03T00:57:52.128Z,2.77
2018-11-03T01:00:25.398Z,3.03
2018-11-03T01:02:58.815Z,2.80
2018-11-03T01:05:32.044Z,3.30
2018-11-03T01:08:05.571Z,2.67
2018-11-03T01:10:38.777Z,3.50
2018-11-03T01:13:13.478Z,3.10
2018-11-03T01:15:46.395Z,2.83
2018-11-03T01:18:19.673Z,2.80
2018-11-03T01:20:53.240Z,3.27
2018-11-03T01:23:26.792Z,2.60
2018-11-03T01:25:59.853Z,2.73
2018-11-03T01:28:32.767Z,3.10
2018-11-03T01:31:05.825Z,3.40
2018-11-03T01:33:38.887Z,2.83
2018-11-03T01:36:11.951Z,3.60
2018-11-03T01:38:45.160Z,4.23
2018-11-03T01:41:18.506Z,3.67
2018-11-03T01:43:51.877Z,3.03
2018-11-03T01:46:25.255Z,2.80
2018-11-03T01:48:58.379Z,3.03
2018-11-03T01:51:31.673Z,3.33
2018-11-03T01:54:05.571Z,3.63
2018-11-03T01:56:38.719Z,3.87
2018-11-03T01:59:11.787Z,2.87
2018-11-03T02:01:44.784Z,3.00
2018-11-03T02:04:17.733Z,3.80
2018-11-03T02:06:51.964Z,4.90
2018-11-03T02:09:25.207Z,3.97
2018-11-03T02:11:58.214Z,4.07
2018-11-03T02:14:31.409Z,4.00
2018-11-03T02:17:04.726Z,4.57
2018-11-03T02:19:38.585Z,4.57
2018-11-03T02:22:12.368Z,4.00
2018-11-03T02:24:45.687Z,4.63
2018-11-03T02:27:19.303Z,4.90
2018-11-03T02:29:52.680Z,3.83
2018-11-03T02:32:26.037Z,3.70
2018-11-03T02:34:59.265Z,4.40
2018-11-03T02:37:32.402Z,5.00
2018-11-03T02:40:05.649Z,4.20
2018-11-03T02:42:39.559Z,6.87
2018-11-03T02:45:13.110Z,5.93
2018-11-03T02:47:46.477Z,5.33
2018-11-03T02:50:19.765Z,21.27
2018-11-03T02:52:52.432Z,21.30
2018-11-03T02:55:26.223Z,19.20
2018-11-03T02:57:59.791Z,12.73
2018-11-03T03:00:33.190Z,9.50
2018-11-03T03:03:06.296Z,14.07
2018-11-03T03:05:39.241Z,9.70
2018-11-03T03:08:12.227Z,8.77
2018-11-03T03:10:45.847Z,9.73
2018-11-03T03:13:19.134Z,6.07
2018-11-03T03:15:52.365Z,8.70
2018-11-03T03:18:25.633Z,5.60
2018-11-03T03:20:58.564Z,5.87
2018-11-03T03:23:32.211Z,7.00
2018-11-03T03:26:05.518Z,8.90
2018-11-03T03:28:38.974Z,6.93
2018-11-03T03:31:12.152Z,5.80
2018-11-03T03:33:45.261Z,6.23
2018-11-03T03:36:18.440Z,7.00
2018-11-03T03:38:51.581Z,7.03
2018-11-03T03:41:24.920Z,8.03
2018-11-03T03:43:59.585Z,9.27
2018-11-03T03:46:32.825Z,9.93
2018-11-03T03:49:05.959Z,13.33
2018-11-03T03:51:39.360Z,10.53
2018-11-03T03:54:12.436Z,7.70
2018-11-03T03:56:45.984Z,6.33
2018-11-03T03:59:18.963Z,8.90
2018-11-03T04:01:52.097Z,6.80
2018-11-03T04:04:25.307Z,7.43
2018-11-03T04:06:58.388Z,5.93
2018-11-03T04:09:31.684Z,6.10
2018-11-03T04:12:05.074Z,23.70
2018-11-03T04:14:38.453Z,22.43
2018-11-03T04:17:11.822Z,10.07
2018-11-03T04:19:45.017Z,6.80
2018-11-03T04:22:18.057Z,5.70
2018-11-03T04:24:50.881Z,6.70
2018-11-03T04:27:24.160Z,7.67
2018-11-03T04:29:57.268Z,7.40
2018-11-03T04:32:30.084Z,8.10
2018-11-03T04:35:03.782Z,11.53
2018-11-03T04:37:37.374Z,13.07
2018-11-03T04:40:12.435Z,13.17
2018-11-03T04:42:45.766Z,14.60
2018-11-03T04:45:18.616Z,17.03
2018-11-03T04:47:51.645Z,16.00
2018-11-03T04:50:24.928Z,25.20
2018-11-03T04:52:57.618Z,22.13
2018-11-03T04:55:31.059Z,15.93
2018-11-03T04:58:04.678Z,19.50
2018-11-03T05:00:37.581Z,18.80
2018-11-03T05:03:10.909Z,20.40
2018-11-03T05:05:43.737Z,14.60
2018-11-03T05:08:16.634Z,26.87
2018-11-03T05:10:49.953Z,29.73
2018-11-03T05:13:22.683Z,15.40
2018-11-03T05:15:55.784Z,14.23
2018-11-03T05:18:28.852Z,11.33
2018-11-03T05:21:01.587Z,10.60
2018-11-03T05:23:34.745Z,10.67
2018-11-03T05:26:08.147Z,10.70
2018-11-03T05:28:41.229Z,10.30
2018-11-03T05:31:14.500Z,11.57
2018-11-03T05:33:47.321Z,12.37
2018-11-03T05:36:20.354Z,11.60
2018-11-03T05:38:53.504Z,14.13
2018-11-03T05:41:26.903Z,11.60
2018-11-03T05:43:59.946Z,11.50
2018-11-03T05:46:32.711Z,10.90
2018-11-03T05:49:05.728Z,10.70
2018-11-03T05:51:38.907Z,12.27
2018-11-03T05:54:11.239Z,10.10
2018-11-03T05:56:44.560Z,12.87
2018-11-03T05:59:17.127Z,12.00
2018-11-03T06:01:50.277Z,10.73
2018-11-03T06:04:23.105Z,9.87
2018-11-03T06:06:56.098Z,14.73
2018-11-03T06:09:29.586Z,10.50
2018-11-03T06:12:02.920Z,10.97
2018-11-03T06:14:36.405Z,10.77
2018-11-03T06:17:09.519Z,15.70
2018-11-03T06:19:42.566Z,10.77
2018-11-03T06:22:15.722Z,24.80
2018-11-03T06:24:48.748Z,32.87
2018-11-03T06:27:21.581Z,20.20
2018-11-03T06:29:54.757Z,11.93
2018-11-03T06:32:27.872Z,12.33
2018-11-03T06:35:00.920Z,12.67
2018-11-03T06:37:33.799Z,10.73
2018-11-03T06:40:07.168Z,11.57
2018-11-03T06:42:40.421Z,12.77
2018-11-03T06:45:14.983Z,13.40
2018-11-03T06:47:48.603Z,12.80
2018-11-03T06:50:21.874Z,11.63
2018-11-03T06:52:54.729Z,18.97
2018-11-03T06:55:27.621Z,24.37
2018-11-03T06:58:00.914Z,24.50
2018-11-03T07:00:34.052Z,13.67
2018-11-03T07:03:07.197Z,12.87
2018-11-03T07:05:40.238Z,13.60
2018-11-03T07:08:13.514Z,15.60
2018-11-03T07:10:46.705Z,17.53
2018-11-03T07:13:19.943Z,14.37
2018-11-03T07:15:53.239Z,19.43
2018-11-03T07:18:25.993Z,19.83
2018-11-03T07:20:59.385Z,43.07
2018-11-03T07:23:32.300Z,43.23
2018-11-03T07:26:05.414Z,50.30
2018-11-03T07:28:38.630Z,45.87
2018-11-03T07:31:11.828Z,28.70
2018-11-03T07:33:44.766Z,26.23
2018-11-03T07:36:18.037Z,23.60
2018-11-03T07:38:51.083Z,25.70
2018-11-03T07:41:24.133Z,17.53
2018-11-03T07:43:57.126Z,14.20
2018-11-03T07:46:30.148Z,10.07
2018-11-03T07:49:03.231Z,11.60
2018-11-03T07:51:35.985Z,9.10
2018-11-03T07:54:08.961Z,8.80
2018-11-03T07:56:41.551Z,8.37
2018-11-03T07:59:14.231Z,8.93
2018-11-03T08:01:47.251Z,8.80
2018-11-03T08:04:20.123Z,8.77
2018-11-03T08:06:53.011Z,9.80
2018-11-03T08:09:25.341Z,9.73
2018-11-03T08:11:58.112Z,14.13
2018-11-03T08:14:30.940Z,13.43
2018-11-03T08:17:03.491Z,10.60
2018-11-03T08:19:36.327Z,9.27
2018-11-03T08:22:09.104Z,10.27
2018-11-03T08:24:41.592Z,11.73
2018-11-03T08:27:13.921Z,9.70
2018-11-03T08:29:46.327Z,8.47
2018-11-03T08:32:18.702Z,9.80
2018-11-03T08:34:51.278Z,9.23
2018-11-03T08:37:24.315Z,14.07
2018-11-03T08:39:57.213Z,12.87
2018-11-03T08:42:29.860Z,22.30
2018-11-03T08:45:03.079Z,15.77
2018-11-03T08:47:35.763Z,11.63
2018-11-03T08:50:09.176Z,14.03
2018-11-03T08:52:42.008Z,12.63
2018-11-03T08:55:15.305Z,12.13
2018-11-03T08:57:47.489Z,10.40
2018-11-03T09:00:20.377Z,9.87
2018-11-03T09:02:52.955Z,11.93
2018-11-03T09:05:25.372Z,12.07
2018-11-03T09:07:58.460Z,10.60
2018-11-03T09:10:31.539Z,10.73
2018-11-03T09:13:04.801Z,9.73
2018-11-03T09:15:38.857Z,8.10
2018-11-03T09:18:12.001Z,8.60
2018-11-03T09:20:44.652Z,8.33
2018-11-03T09:23:17.389Z,8.77
2018-11-03T09:25:50.470Z,8.90
2018-11-03T09:28:23.033Z,9.77
2018-11-03T09:37:45.493Z,8.50
2018-11-03T09:40:19.171Z,10.40
2018-11-03T09:42:52.383Z,9.23
2018-11-03T09:45:25.505Z,9.27
2018-11-03T09:47:58.298Z,10.20
2018-11-03T09:50:30.623Z,10.57
2018-11-03T09:53:03.538Z,10.57
2018-11-03T09:55:36.060Z,9.20
2018-11-03T09:58:09.126Z,8.43
2018-11-03T10:00:42.243Z,9.60
2018-11-03T10:03:14.777Z,10.30
2018-11-03T10:05:47.461Z,8.43
2018-11-03T10:08:20.477Z,9.70
2018-11-03T10:10:53.608Z,10.93
2018-11-03T10:13:26.189Z,9.73
2018-11-03T10:15:59.187Z,9.07
2018-11-03T10:18:31.977Z,8.53
2018-11-03T10:21:04.416Z,10.43
2018-11-03T10:23:37.504Z,9.60
2018-11-03T10:26:09.827Z,8.70
2018-11-03T10:28:42.782Z,8.93
2018-11-03T10:31:15.237Z,9.67
2018-11-03T10:33:47.756Z,9.80
2018-11-03T10:36:20.249Z,9.77
2018-11-03T10:38:53.438Z,9.40
2018-11-03T10:41:27.002Z,10.03
2018-11-03T10:43:59.798Z,10.03
2018-11-03T10:46:32.641Z,8.20
2018-11-03T10:49:05.059Z,8.37
2018-11-03T10:51:37.681Z,9.47
2018-11-03T10:54:10.368Z,9.57
2018-11-03T10:56:42.778Z,8.50
2018-11-03T10:59:16.143Z,8.63
2018-11-03T11:01:53.288Z,9.00
2018-11-03T11:04:30.181Z,9.20
2018-11-03T11:07:07.338Z,8.73
2018-11-03T11:09:44.272Z,8.80
2018-11-03T11:12:21.290Z,10.07
2018-11-03T11:14:54.145Z,13.10
2018-11-03T11:17:26.572Z,11.53
2018-11-03T11:19:59.077Z,11.10
2018-11-03T11:22:31.165Z,10.13
2018-11-03T11:25:04.234Z,10.53
2018-11-03T11:27:37.163Z,9.80
2018-11-03T11:30:11.875Z,9.60
2018-11-03T11:32:45.237Z,10.90
2018-11-03T11:35:17.779Z,10.30
2018-11-03T11:37:50.548Z,9.33
2018-11-03T11:40:22.936Z,8.97
2018-11-03T11:42:55.716Z,9.53
2018-11-03T11:45:28.200Z,8.00
2018-11-03T11:48:00.626Z,9.40
2018-11-03T11:50:32.946Z,8.17
2018-11-03T11:53:05.310Z,11.50
2018-11-03T11:55:37.882Z,9.57
2018-11-03T11:58:10.807Z,10.20
2018-11-03T12:00:43.846Z,9.53
2018-11-03T12:03:16.459Z,10.73
2018-11-03T12:05:49.224Z,10.40
2018-11-03T12:08:21.897Z,10.00
2018-11-03T12:10:54.772Z,9.47
2018-11-03T12:13:27.208Z,10.03
2018-11-03T12:15:59.595Z,9.00
2018-11-03T12:18:32.319Z,8.80
2018-11-03T12:21:05.395Z,8.73
2018-11-03T12:23:38.255Z,10.20
2018-11-03T12:26:11.383Z,8.57
2018-11-03T12:28:43.886Z,8.60
2018-11-03T12:31:16.308Z,11.10
2018-11-03T12:33:49.060Z,9.40
2018-11-03T12:36:21.456Z,9.87
2018-11-03T12:38:54.157Z,9.80
2018-11-03T12:41:26.764Z,9.93
2018-11-03T12:43:59.372Z,11.47
2018-11-03T12:46:31.863Z,11.60
2018-11-03T12:49:04.720Z,10.80
2018-11-03T12:51:37.125Z,10.00
2018-11-03T12:54:11.098Z,10.10
2018-11-03T12:56:44.335Z,11.07
2018-11-03T12:59:16.861Z,9.00
2018-11-03T13:01:50.277Z,9.97
2018-11-03T13:04:22.856Z,9.77
2018-11-03T13:06:55.678Z,8.10
2018-11-03T13:09:28.027Z,8.50
2018-11-03T13:12:01.043Z,8.00
2018-11-03T13:14:33.753Z,7.00
2018-11-03T13:17:06.037Z,9.50
2018-11-03T13:19:38.576Z,8.37
2018-11-03T13:22:11.284Z,6.33
2018-11-03T13:24:43.573Z,7.53
2018-11-03T13:27:15.944Z,8.70
2018-11-03T13:29:49.045Z,7.00
2018-11-03T13:32:21.737Z,7.10
2018-11-03T13:34:54.671Z,8.23
2018-11-03T13:37:27.224Z,7.67
2018-11-03T13:40:00.379Z,8.93
2018-11-03T13:42:33.032Z,7.40
2018-11-03T13:45:05.897Z,9.10
2018-11-03T13:47:38.800Z,7.17
2018-11-03T13:50:14.918Z,8.47
2018-11-03T13:52:48.576Z,7.77
2018-11-03T13:55:21.527Z,7.77
2018-11-03T13:57:54.030Z,7.57
2018-11-03T14:00:26.341Z,8.60
2018-11-03T14:02:58.435Z,7.13
2018-11-03T14:05:31.851Z,7.47
2018-11-03T14:08:04.429Z,7.40
2018-11-03T14:10:36.636Z,7.27
2018-11-03T14:13:09.192Z,7.70
2018-11-03T14:15:41.551Z,7.10
2018-11-03T14:18:14.137Z,8.70
2018-11-03T14:20:46.406Z,6.57
2018-11-03T14:23:18.770Z,7.07
2018-11-03T14:25:51.471Z,6.60
2018-11-03T14:28:24.101Z,7.23
2018-11-03T14:30:56.830Z,7.40
2018-11-03T14:33:29.314Z,7.37
2018-11-03T14:36:01.504Z,6.73
2018-11-03T14:38:34.373Z,6.80
2018-11-03T14:41:07.331Z,6.60
2018-11-03T14:43:39.468Z,6.40
2018-11-03T14:46:12.500Z,5.63
2018-11-03T14:48:44.666Z,6.57
2018-11-03T14:51:17.211Z,6.33
2018-11-03T14:53:50.073Z,6.00
2018-11-03T14:56:22.730Z,6.03
2018-11-03T14:58:56.023Z,6.13
2018-11-03T15:01:28.969Z,6.40
2018-11-03T15:04:01.237Z,7.30
2018-11-03T15:06:34.782Z,6.57
2018-11-03T15:09:09.321Z,6.57
2018-11-03T15:11:41.699Z,6.93
2018-11-03T15:14:14.146Z,6.23
2018-11-03T15:16:46.639Z,6.30
2018-11-03T15:19:19.219Z,7.13
2018-11-03T15:21:52.117Z,6.40
2018-11-03T15:24:24.724Z,6.53
2018-11-03T15:26:57.161Z,6.60
2018-11-03T15:29:29.644Z,6.47
2018-11-03T15:32:02.521Z,7.07
2018-11-03T15:34:36.919Z,6.17
2018-11-03T15:37:09.368Z,6.77
2018-11-03T15:39:41.758Z,7.40
2018-11-03T15:42:14.233Z,7.87
2018-11-03T15:44:46.724Z,7.50
2018-11-03T15:47:19.081Z,6.70
2018-11-03T15:49:51.537Z,6.67
2018-11-03T15:52:24.570Z,7.00
2018-11-03T15:54:57.007Z,6.67
2018-11-03T15:57:29.503Z,8.07
2018-11-03T16:00:02.316Z,5.37
2018-11-03T16:02:36.376Z,6.17
2018-11-03T16:05:08.831Z,5.50
2018-11-03T16:07:41.123Z,6.13
2018-11-03T16:12:50.733Z,6.67
2018-11-03T16:15:24.517Z,6.90
2018-11-03T16:17:57.390Z,5.60
2018-11-03T16:20:30.166Z,5.63
2018-11-03T16:23:02.949Z,6.63
2018-11-03T16:25:36.512Z,6.00
2018-11-03T16:28:08.591Z,6.13
2018-11-03T16:30:40.906Z,7.43
2018-11-03T16:33:13.298Z,8.77
2018-11-03T16:35:45.630Z,9.30
2018-11-03T16:38:18.030Z,8.80
2018-11-03T16:40:50.395Z,7.60
2018-11-03T16:43:22.941Z,5.40
2018-11-03T16:45:55.441Z,7.23
2018-11-03T16:48:28.067Z,7.33
2018-11-03T16:51:00.750Z,7.97
2018-11-03T16:53:32.928Z,5.67
2018-11-03T16:56:05.823Z,6.73
2018-11-03T16:58:38.337Z,6.90
2018-11-03T17:01:10.742Z,7.47
2018-11-03T17:03:43.519Z,5.93
2018-11-03T17:06:16.146Z,6.30
2018-11-03T17:08:48.455Z,6.13
2018-11-03T17:11:20.925Z,7.10
2018-11-03T17:13:53.866Z,7.73
2018-11-03T17:16:26.644Z,6.70
2018-11-03T17:18:59.064Z,6.23
2018-11-03T17:21:32.266Z,6.33
2018-11-03T17:24:04.744Z,5.47
2018-11-03T17:26:37.412Z,5.87
2018-11-03T17:29:09.967Z,5.83
2018-11-03T17:31:43.035Z,5.77
2018-11-03T17:34:15.595Z,5.53
2018-11-03T17:36:48.119Z,5.10
2018-11-03T17:39:20.710Z,5.67
2018-11-03T17:41:53.486Z,6.20
2018-11-03T17:44:26.448Z,7.07
2018-11-03T17:46:58.853Z,5.00
2018-11-03T17:49:31.525Z,4.70
2018-11-03T17:52:03.869Z,5.23
2018-11-03T17:54:36.825Z,5.90
2018-11-03T17:57:09.527Z,6.10
2018-11-03T17:59:42.973Z,6.20
2018-11-03T18:02:16.068Z,5.33
2018-11-03T18:04:48.044Z,7.00
2018-11-03T18:07:20.785Z,5.07
2018-11-03T18:09:53.346Z,5.83
2018-11-03T18:12:26.125Z,5.73
2018-11-03T18:14:58.874Z,4.80
2018-11-03T18:17:32.699Z,6.30
2018-11-03T18:20:05.453Z,4.70
2018-11-03T18:22:38.462Z,5.20
2018-11-03T18:25:11.537Z,5.40
2018-11-03T18:27:44.013Z,4.70
2018-11-03T18:30:16.454Z,5.10
2018-11-03T18:32:48.677Z,5.00
2018-11-03T18:35:21.103Z,4.60
2018-11-03T18:37:54.034Z,6.00
2018-11-03T18:40:27.492Z,4.97
2018-11-03T18:43:00.086Z,4.33
2018-11-03T18:45:32.617Z,4.40
2018-11-03T18:48:04.899Z,5.47
2018-11-03T18:50:39.073Z,5.00
2018-11-03T18:53:11.556Z,5.03
2018-11-03T18:55:44.585Z,5.20
2018-11-03T18:58:17.210Z,5.53
2018-11-03T19:00:49.774Z,5.00
2018-11-03T19:03:22.308Z,5.23
2018-11-03T19:05:55.724Z,5.73
2018-11-03T19:08:28.778Z,6.07
2018-11-03T19:11:01.310Z,5.00
2018-11-03T19:13:34.038Z,5.20
2018-11-03T19:16:06.223Z,5.30
2018-11-03T19:18:38.744Z,4.90
2018-11-03T19:21:11.523Z,5.87
2018-11-03T19:23:44.272Z,5.80
2018-11-03T19:26:16.974Z,5.73
2018-11-03T19:28:53.206Z,6.27
2018-11-03T19:31:26.137Z,5.73
2018-11-03T19:33:58.669Z,5.90
2018-11-03T19:36:31.492Z,6.03
2018-11-03T19:39:04.232Z,5.90
2018-11-03T19:41:37.194Z,6.07
2018-11-03T19:44:10.323Z,5.27
2018-11-03T19:46:43.057Z,6.60
2018-11-03T19:49:15.634Z,4.93
2018-11-03T19:51:48.080Z,5.40
2018-11-03T19:54:21.301Z,5.30
2018-11-03T19:56:54.623Z,4.80
2018-11-03T19:59:26.933Z,4.60
2018-11-03T20:01:59.212Z,4.47
2018-11-03T20:04:32.352Z,4.87
2018-11-03T20:07:04.854Z,5.70
2018-11-03T20:09:37.270Z,5.63
2018-11-03T20:12:09.954Z,5.07
2018-11-03T20:14:42.412Z,4.73
2018-11-03T20:17:14.687Z,5.13
2018-11-03T20:19:48.259Z,4.90
2018-11-03T20:22:20.657Z,5.53
2018-11-03T20:24:52.793Z,4.63
2018-11-03T20:27:25.625Z,4.77
2018-11-03T20:29:58.760Z,4.53
2018-11-03T20:32:31.401Z,5.20
2018-11-03T20:35:03.831Z,5.20
2018-11-03T20:37:36.306Z,4.57
2018-11-03T20:40:09.558Z,5.53
2018-11-03T20:42:41.896Z,4.80
2018-11-03T20:45:14.542Z,6.30
2018-11-03T20:47:48.126Z,5.03
2018-11-03T20:50:21.949Z,4.83
2018-11-03T20:52:55.879Z,5.13
2018-11-03T20:55:29.639Z,5.07
2018-11-03T20:58:06.426Z,5.13
2018-11-03T21:00:44.164Z,5.33
2018-11-03T21:03:18.836Z,5.87
2018-11-03T21:05:51.513Z,3.83
2018-11-03T21:08:23.943Z,4.80
2018-11-03T21:10:57.867Z,4.30
2018-11-03T21:13:32.635Z,4.50
2018-11-03T21:16:05.249Z,4.30
2018-11-03T21:18:40.132Z,4.43
2018-11-03T21:21:14.080Z,4.90
2018-11-03T21:23:48.129Z,4.20
2018-11-03T21:26:22.260Z,4.73
2018-11-03T21:28:57.395Z,6.27
2018-11-03T21:31:31.105Z,6.63
2018-11-03T21:34:03.948Z,6.53
2018-11-03T21:36:37.426Z,6.60
2018-11-03T21:39:12.564Z,6.53
2018-11-03T21:41:45.842Z,5.20
2018-11-03T21:44:19.650Z,4.80
2018-11-03T21:46:55.007Z,5.60
2018-11-03T21:49:28.962Z,5.77
2018-11-03T21:52:01.942Z,5.50
2018-11-03T21:54:35.056Z,5.00
2018-11-03T21:57:07.372Z,5.20
2018-11-03T21:59:40.297Z,5.33
2018-11-03T22:02:13.991Z,5.70
2018-11-03T22:04:48.247Z,6.00
2018-11-03T22:07:21.806Z,6.83
2018-11-03T22:09:55.416Z,6.70
2018-11-03T22:12:28.184Z,6.30
2018-11-03T22:15:02.014Z,6.17
2018-11-03T22:17:34.941Z,5.87
2018-11-03T22:20:07.766Z,7.03
2018-11-03T22:22:41.218Z,6.97
2018-11-03T22:25:14.012Z,6.40
2018-11-03T22:27:46.626Z,7.50
2018-11-03T22:30:18.817Z,7.20
2018-11-03T22:32:51.575Z,6.63
2018-11-03T22:35:24.162Z,6.30
2018-11-03T22:37:56.659Z,6.80
2018-11-03T22:40:29.082Z,7.13
2018-11-03T22:43:01.605Z,5.30
2018-11-03T22:45:34.546Z,5.80
2018-11-03T22:48:06.991Z,8.60
2018-11-03T22:50:39.745Z,7.80
2018-11-03T22:53:12.509Z,14.30
2018-11-03T22:55:44.796Z,10.40
2018-11-03T22:58:17.045Z,10.83
2018-11-03T23:00:54.061Z,10.37
2018-11-03T23:03:27.344Z,11.13
2018-11-03T23:05:59.705Z,11.37
2018-11-03T23:08:32.399Z,10.80
2018-11-03T23:11:04.898Z,11.00
2018-11-03T23:13:37.675Z,14.80
2018-11-03T23:16:10.374Z,17.53
2018-11-03T23:18:43.473Z,10.30
2018-11-03T23:21:16.696Z,7.10
2018-11-03T23:23:49.268Z,8.57
2018-11-03T23:26:23.247Z,8.57
2018-11-03T23:28:57.004Z,7.60
2018-11-03T23:31:29.467Z,8.23
2018-11-03T23:34:02.103Z,7.83
2018-11-03T23:36:34.846Z,9.13
2018-11-03T23:39:09.269Z,8.20
2018-11-03T23:41:41.982Z,9.13
2018-11-03T23:44:15.345Z,9.90
2018-11-03T23:46:48.053Z,9.67
2018-11-03T23:49:20.815Z,11.17
2018-11-03T23:51:53.012Z,10.40
2018-11-03T23:54:25.601Z,9.07
2018-11-03T23:56:58.016Z,9.00
2018-11-03T23:59:30.557Z,10.07
